Hauptseite
METAR-TAF:

METAR-TAF

Flughäfen :

Chesterfield Inlet, Nunavut, Kanada

Breite: 63-20N, Länge: 090-43W, Höhe: 11 m

Beobachtung

Neuester Wetterbericht von vor 9 Stunden und 20 Minuten, um 23:00 UTC
Wind 10 kt aus Nord/Nordost
Temperatur -20°C
Luftfeuchtigkeit 77%
Luftdruck 1008 hPa
Sichtweite: 24.1 km
Durchbrochene Bewölkung in der Höhe von 1200 ft

METAR: CYCS 182300Z 02010KT 15SM BKN012 M20/M23 A2976 RMK ST6 -17.2/-27.3/NIL/35 MEDIUM PACK LAST STFD OBS NXT 191300Z SLP080

Zeit: 02:20 (08:20 UTC)


TAF: fehlend

Wetterbeobachtungen und Prognosen von mehr als 4000 Flughäfen (METAR und TAF Bericht).

Die verfügbaren Stationen werden durch gelbe und rote Markierungen auf der Karte dargestellt.

Führen Sie die Maus auf sie, um den Namen der Station zu sehen.

Darauf klicken, um die Beobachtung von Wetterbeobachtungen und Prognosen zu sehen.

Um die Karte zu ändern : klicken Sie auf den grünen Tasten mit einem schwarzen Kreuz Zum Vergrößern, auf den grünen Button mit einem Gedankenstrich zu verkleinern, oder auf die grünen Pfeile für benachbarte Karten.


METAR-TAF: